createdAt,value
2017-04-03T00:00:46.811Z,1017.25
2017-04-03T00:01:59.078Z,1017.29
2017-04-03T00:03:11.604Z,1017.26
2017-04-03T00:04:24.149Z,1017.28
2017-04-03T00:05:36.969Z,1017.32
2017-04-03T00:06:49.519Z,1017.31
2017-04-03T00:08:01.757Z,1017.3
2017-04-03T00:09:14.307Z,1017.28
2017-04-03T00:10:26.824Z,1017.26
2017-04-03T00:11:39.320Z,1017.25
2017-04-03T00:12:51.845Z,1017.27
2017-04-03T00:14:04.107Z,1017.27
2017-04-03T00:15:16.653Z,1017.28
2017-04-03T00:16:29.457Z,1017.26
2017-04-03T00:17:41.700Z,1017.27
2017-04-03T00:18:54.226Z,1017.24
2017-04-03T00:20:06.762Z,1017.26
2017-04-03T00:21:19.292Z,1017.25
2017-04-03T00:22:31.539Z,1017.27
2017-04-03T00:23:44.055Z,1017.29
2017-04-03T00:24:56.575Z,1017.29
2017-04-03T00:26:09.124Z,1017.3
2017-04-03T00:27:21.668Z,1017.32
2017-04-03T00:28:33.891Z,1017.31
2017-04-03T00:29:46.159Z,1017.33
2017-04-03T00:30:58.730Z,1017.31
2017-04-03T00:32:10.655Z,1017.33
2017-04-03T00:33:23.196Z,1017.34
2017-04-03T00:34:35.397Z,1017.32
2017-04-03T00:35:47.941Z,1017.31
2017-04-03T00:37:00.193Z,1017.31
2017-04-03T00:38:12.730Z,1017.34
2017-04-03T00:39:25.255Z,1017.33
2017-04-03T00:40:37.801Z,1017.28
2017-04-03T00:41:50.038Z,1017.3
2017-04-03T00:43:02.583Z,1017.31
2017-04-03T00:44:14.834Z,1017.33
2017-04-03T00:45:27.055Z,1017.35
2017-04-03T00:46:39.301Z,1017.37
2017-04-03T00:47:51.571Z,1017.35
2017-04-03T00:49:04.090Z,1017.37
2017-04-03T00:50:16.595Z,1017.37
2017-04-03T00:51:28.831Z,1017.32
2017-04-03T00:52:41.376Z,1017.35
2017-04-03T00:53:53.605Z,1017.34
2017-04-03T00:55:06.152Z,1017.39
2017-04-03T00:56:18.422Z,1017.36
2017-04-03T00:57:30.942Z,1017.4
2017-04-03T00:58:43.457Z,1017.39
2017-04-03T00:59:55.682Z,1017.45
2017-04-03T01:01:07.920Z,1017.39
2017-04-03T01:02:20.502Z,1017.42
2017-04-03T01:03:32.725Z,1017.4
2017-04-03T01:04:44.965Z,1017.43
2017-04-03T01:05:57.493Z,1017.42
2017-04-03T01:07:09.725Z,1017.41
2017-04-03T01:08:21.930Z,1017.42
2017-04-03T01:09:34.148Z,1017.46
2017-04-03T01:10:46.373Z,1017.44
2017-04-03T01:11:58.942Z,1017.46
2017-04-03T01:13:11.465Z,1017.5
2017-04-03T01:14:23.686Z,1017.52
2017-04-03T01:15:35.933Z,1017.48
2017-04-03T01:16:48.177Z,1017.56
2017-04-03T01:18:00.416Z,1017.52
2017-04-03T01:19:12.941Z,1017.53
2017-04-03T01:20:25.462Z,1017.53
2017-04-03T01:21:38.026Z,1017.58
2017-04-03T01:22:50.571Z,1017.54
2017-04-03T01:24:03.102Z,1017.53
2017-04-03T01:25:15.679Z,1017.52
2017-04-03T01:26:27.913Z,1017.51
2017-04-03T01:27:39.816Z,1017.54
2017-04-03T01:28:52.343Z,1017.53
2017-04-03T01:30:04.854Z,1017.51
2017-04-03T01:31:17.402Z,1017.52
2017-04-03T01:32:29.630Z,1017.51
2017-04-03T01:33:42.163Z,1017.51
2017-04-03T01:34:54.391Z,1017.53
2017-04-03T01:36:06.634Z,1017.53
2017-04-03T01:37:19.160Z,1017.53
2017-04-03T01:38:31.382Z,1017.53
2017-04-03T01:39:43.897Z,1017.56
2017-04-03T01:40:56.419Z,1017.55
2017-04-03T01:42:08.942Z,1017.53
2017-04-03T01:43:21.434Z,1017.56
2017-04-03T01:44:33.963Z,1017.6
2017-04-03T01:45:46.204Z,1017.6
2017-04-03T01:46:58.775Z,1017.63
2017-04-03T01:48:10.993Z,1017.64
2017-04-03T01:49:23.518Z,1017.64
2017-04-03T01:50:35.778Z,1017.65
2017-04-03T01:51:48.308Z,1017.61
2017-04-03T01:53:00.856Z,1017.67
2017-04-03T01:54:13.093Z,1017.65
2017-04-03T01:55:25.322Z,1017.67
2017-04-03T01:56:37.868Z,1017.69
2017-04-03T01:57:50.409Z,1017.69
2017-04-03T01:59:02.634Z,1017.68
2017-04-03T02:00:14.879Z,1017.66
2017-04-03T02:01:27.115Z,1017.66
2017-04-03T02:02:39.336Z,1017.68
2017-04-03T02:03:51.857Z,1017.72
2017-04-03T02:05:04.103Z,1017.73
2017-04-03T02:06:16.631Z,1017.78
2017-04-03T02:07:29.149Z,1017.72
2017-04-03T02:08:41.691Z,1017.68
2017-04-03T02:09:54.224Z,1017.67
2017-04-03T02:11:06.170Z,1017.68
2017-04-03T02:12:18.436Z,1017.68
2017-04-03T02:13:30.360Z,1017.68
2017-04-03T02:14:42.603Z,1017.67
2017-04-03T02:15:55.416Z,1017.68
2017-04-03T02:17:07.941Z,1017.67
2017-04-03T02:18:20.516Z,1017.75
2017-04-03T02:19:33.014Z,1017.72
2017-04-03T02:20:45.233Z,1017.71
2017-04-03T02:21:57.771Z,1017.69
2017-04-03T02:23:10.299Z,1017.74
2017-04-03T02:24:22.823Z,1017.72
2017-04-03T02:25:35.341Z,1017.73
2017-04-03T02:26:47.565Z,1017.72
2017-04-03T02:28:00.105Z,1017.73
2017-04-03T02:29:12.357Z,1017.75
2017-04-03T02:30:24.579Z,1017.74
2017-04-03T02:31:36.800Z,1017.71
2017-04-03T02:32:49.018Z,1017.69
2017-04-03T02:34:01.230Z,1017.71
2017-04-03T02:35:13.767Z,1017.7
2017-04-03T02:36:26.288Z,1017.7
2017-04-03T02:37:38.854Z,1017.73
2017-04-03T02:38:51.400Z,1017.76
2017-04-03T02:40:03.927Z,1017.77
2017-04-03T02:41:16.460Z,1017.76
2017-04-03T02:42:28.984Z,1017.76
2017-04-03T02:43:41.526Z,1017.75
2017-04-03T02:44:54.030Z,1017.79
2017-04-03T02:46:06.567Z,1017.8
2017-04-03T02:47:18.784Z,1017.82
2017-04-03T02:48:31.614Z,1017.82
2017-04-03T02:49:44.139Z,1017.84
2017-04-03T02:50:56.677Z,1017.85
2017-04-03T02:52:08.918Z,1017.81
2017-04-03T02:53:21.422Z,1017.82
2017-04-03T02:54:33.696Z,1017.83
2017-04-03T02:55:46.256Z,1017.85
2017-04-03T02:56:58.788Z,1017.85
2017-04-03T02:58:11.309Z,1017.81
2017-04-03T02:59:24.177Z,1017.81
2017-04-03T03:00:36.427Z,1017.84
2017-04-03T03:01:48.371Z,1017.86
2017-04-03T03:03:00.857Z,1017.89
2017-04-03T03:04:13.385Z,1017.91
2017-04-03T03:05:25.606Z,1017.91
2017-04-03T03:06:37.829Z,1017.93
2017-04-03T03:07:50.051Z,1017.93
2017-04-03T03:09:02.598Z,1017.92
2017-04-03T03:10:15.366Z,1017.93
2017-04-03T03:11:27.911Z,1017.95
2017-04-03T03:12:40.486Z,1017.98
2017-04-03T03:13:53.031Z,1017.97
2017-04-03T03:15:05.523Z,1017.96
2017-04-03T03:16:18.045Z,1017.92
2017-04-03T03:17:30.565Z,1017.93
2017-04-03T03:18:43.078Z,1017.95
2017-04-03T03:19:55.306Z,1017.95
2017-04-03T03:21:08.145Z,1018.01
2017-04-03T03:22:20.678Z,1017.99
2017-04-03T03:23:33.198Z,1018.05
2017-04-03T03:24:45.718Z,1018.05
2017-04-03T03:25:58.257Z,1018.05
2017-04-03T03:27:10.811Z,1018.03
2017-04-03T03:28:23.346Z,1018.07
2017-04-03T03:29:35.849Z,1018.09
2017-04-03T03:30:48.070Z,1018.06
2017-04-03T03:32:00.834Z,1018.06
2017-04-03T03:33:13.365Z,1018.12
2017-04-03T03:34:25.912Z,1018.12
2017-04-03T03:35:38.429Z,1018.06
2017-04-03T03:36:51.005Z,1018.14
2017-04-03T03:38:03.553Z,1018.13
2017-04-03T03:39:15.491Z,1018.14
2017-04-03T03:40:28.041Z,1018.16
2017-04-03T03:41:40.565Z,1018.18
2017-04-03T03:42:53.080Z,1018.18
2017-04-03T03:44:05.625Z,1018.16
2017-04-03T03:45:17.554Z,1018.17
2017-04-03T03:46:29.771Z,1018.19
2017-04-03T03:47:42.014Z,1018.16
2017-04-03T03:48:54.525Z,1018.2
2017-04-03T03:50:06.429Z,1018.18
2017-04-03T03:51:18.353Z,1018.2
2017-04-03T03:52:30.875Z,1018.17
2017-04-03T03:53:43.723Z,1018.21
2017-04-03T03:54:56.238Z,1018.19
2017-04-03T03:56:08.770Z,1018.23
2017-04-03T03:57:21.284Z,1018.23
2017-04-03T03:58:33.822Z,1018.22
2017-04-03T03:59:46.355Z,1018.25
2017-04-03T04:00:58.592Z,1018.29
2017-04-03T04:02:10.836Z,1018.28
2017-04-03T04:03:23.113Z,1018.3
2017-04-03T04:04:35.607Z,1018.31
2017-04-03T04:05:47.801Z,1018.28
2017-04-03T04:07:00.047Z,1018.27
2017-04-03T04:08:12.572Z,1018.29
2017-04-03T04:09:24.812Z,1018.3
2017-04-03T04:10:37.357Z,1018.38
2017-04-03T04:11:49.886Z,1018.34
2017-04-03T04:13:02.424Z,1018.41
2017-04-03T04:14:14.948Z,1018.42
2017-04-03T04:15:27.174Z,1018.43
2017-04-03T04:16:39.715Z,1018.46
2017-04-03T04:17:52.241Z,1018.48
2017-04-03T04:19:04.802Z,1018.46
2017-04-03T04:20:17.008Z,1018.46
2017-04-03T04:21:29.553Z,1018.49
2017-04-03T04:22:42.073Z,1018.49
2017-04-03T04:23:54.316Z,1018.48
2017-04-03T04:25:06.864Z,1018.52
2017-04-03T04:26:19.416Z,1018.52
2017-04-03T04:27:31.958Z,1018.54
2017-04-03T04:28:44.513Z,1018.57
2017-04-03T04:29:57.088Z,1018.58
2017-04-03T04:31:09.612Z,1018.66
2017-04-03T04:32:21.840Z,1018.64
2017-04-03T04:33:33.761Z,1018.69
2017-04-03T04:34:46.329Z,1018.68
2017-04-03T04:35:58.871Z,1018.68
2017-04-03T04:37:11.396Z,1018.71
2017-04-03T04:38:23.594Z,1018.68
2017-04-03T04:39:36.141Z,1018.71
2017-04-03T04:40:48.683Z,1018.71
2017-04-03T04:42:01.207Z,1018.72
2017-04-03T04:43:13.145Z,1018.76
2017-04-03T04:44:25.699Z,1018.8
2017-04-03T04:45:37.946Z,1018.84
2017-04-03T04:46:50.467Z,1018.83
2017-04-03T04:48:02.986Z,1018.86
2017-04-03T04:49:15.500Z,1018.83
2017-04-03T04:50:28.104Z,1018.92
2017-04-03T04:51:40.322Z,1018.96
2017-04-03T04:52:52.568Z,1018.96
2017-04-03T04:54:05.091Z,1018.95
2017-04-03T04:55:17.316Z,1018.94
2017-04-03T04:56:29.848Z,1019
2017-04-03T04:57:42.078Z,1019.03
2017-04-03T04:58:54.324Z,1019.07
2017-04-03T05:00:06.847Z,1019.08
2017-04-03T05:01:19.089Z,1019.08
2017-04-03T05:02:31.611Z,1019.1
2017-04-03T05:03:44.159Z,1019.13
2017-04-03T05:04:56.698Z,1019.17
2017-04-03T05:06:09.226Z,1019.15
2017-04-03T05:07:21.452Z,1019.14
2017-04-03T05:08:33.393Z,1019.17
2017-04-03T05:09:46.239Z,1019.23
2017-04-03T05:10:58.778Z,1019.22
2017-04-03T05:12:11.278Z,1019.22
2017-04-03T05:13:23.818Z,1019.17
2017-04-03T05:14:36.373Z,1019.19
2017-04-03T05:15:48.886Z,1019.27
2017-04-03T05:17:01.442Z,1019.25
2017-04-03T05:18:13.986Z,1019.25
2017-04-03T05:19:26.527Z,1019.22
2017-04-03T05:20:39.377Z,1019.31
2017-04-03T05:21:51.612Z,1019.3
2017-04-03T05:23:04.145Z,1019.3
2017-04-03T05:24:16.679Z,1019.35
2017-04-03T05:25:28.886Z,1019.39
2017-04-03T05:26:41.408Z,1019.39
2017-04-03T05:27:53.947Z,1019.41
2017-04-03T05:29:06.499Z,1019.42
2017-04-03T05:30:19.019Z,1019.44
2017-04-03T05:31:31.554Z,1019.48
2017-04-03T05:32:44.075Z,1019.54
2017-04-03T05:33:56.607Z,1019.59
2017-04-03T05:35:08.549Z,1019.62
2017-04-03T05:36:21.071Z,1019.71
2017-04-03T05:37:33.295Z,1019.62
2017-04-03T05:38:45.855Z,1019.61
2017-04-03T05:39:58.082Z,1019.65
2017-04-03T05:41:10.625Z,1019.63
2017-04-03T05:42:22.579Z,1019.65
2017-04-03T05:43:35.104Z,1019.59
2017-04-03T05:44:47.618Z,1019.69
2017-04-03T05:46:00.138Z,1019.68
2017-04-03T05:47:12.358Z,1019.65
2017-04-03T05:48:24.257Z,1019.7
2017-04-03T05:49:36.759Z,1019.77
2017-04-03T05:50:49.003Z,1019.77
2017-04-03T05:52:01.542Z,1019.78
2017-04-03T05:53:14.092Z,1019.84
2017-04-03T05:54:26.655Z,1019.82
2017-04-03T05:55:39.180Z,1019.9
2017-04-03T05:56:51.726Z,1019.89
2017-04-03T05:58:04.275Z,1019.9
2017-04-03T05:59:16.820Z,1019.88
2017-04-03T06:00:29.067Z,1019.93
2017-04-03T06:01:41.612Z,1019.91
2017-04-03T06:02:54.130Z,1019.94
2017-04-03T06:04:06.651Z,1020
2017-04-03T06:05:19.198Z,1020
2017-04-03T06:06:31.697Z,1019.99
2017-04-03T06:07:43.931Z,1020.03
2017-04-03T06:08:56.484Z,1020.05
2017-04-03T06:10:09.027Z,1020.1
2017-04-03T06:11:21.580Z,1020.13
2017-04-03T06:12:34.097Z,1020.2
2017-04-03T06:13:46.623Z,1020.18
2017-04-03T06:14:59.182Z,1020.24
2017-04-03T06:16:11.718Z,1020.19
2017-04-03T06:17:24.235Z,1020.17
2017-04-03T06:18:36.769Z,1020.17
2017-04-03T06:19:49.302Z,1020.18
2017-04-03T06:21:01.843Z,1020.2
2017-04-03T06:22:14.386Z,1020.27
2017-04-03T06:23:26.637Z,1020.22
2017-04-03T06:24:38.581Z,1020.2
2017-04-03T06:25:50.806Z,1020.22
2017-04-03T06:27:03.365Z,1020.27
2017-04-03T06:28:15.568Z,1020.27
2017-04-03T06:29:27.523Z,1020.28
2017-04-03T06:30:39.736Z,1020.3
2017-04-03T06:31:52.310Z,1020.31
2017-04-03T06:33:04.256Z,1020.33
2017-04-03T06:34:16.803Z,1020.31
2017-04-03T06:35:29.045Z,1020.32
2017-04-03T06:36:41.596Z,1020.39
2017-04-03T06:37:53.817Z,1020.31
2017-04-03T06:39:06.357Z,1020.36
2017-04-03T06:40:18.899Z,1020.25
2017-04-03T06:41:31.403Z,1020.32
2017-04-03T06:42:43.676Z,1020.3
2017-04-03T06:43:56.237Z,1020.35
2017-04-03T06:45:08.465Z,1020.39
2017-04-03T06:46:20.400Z,1020.4
2017-04-03T06:47:32.336Z,1020.41
2017-04-03T06:48:44.582Z,1020.38
2017-04-03T06:49:57.141Z,1020.38
2017-04-03T06:51:09.395Z,1020.33
2017-04-03T06:52:21.940Z,1020.39
2017-04-03T06:53:34.487Z,1020.34
2017-04-03T06:54:47.021Z,1020.43
2017-04-03T06:55:59.245Z,1020.45
2017-04-03T06:57:11.772Z,1020.4
2017-04-03T06:58:24.299Z,1020.44
2017-04-03T06:59:36.241Z,1020.43
2017-04-03T07:00:48.759Z,1020.48
2017-04-03T07:02:01.308Z,1020.42
2017-04-03T07:03:13.529Z,1020.49
2017-04-03T07:04:25.800Z,1020.43
2017-04-03T07:05:38.038Z,1020.45
2017-04-03T07:06:50.581Z,1020.49
2017-04-03T07:08:03.134Z,1020.5
2017-04-03T07:09:15.660Z,1020.52
2017-04-03T07:10:28.204Z,1020.48
2017-04-03T07:11:40.496Z,1020.48
2017-04-03T07:12:52.743Z,1020.44
2017-04-03T07:14:05.246Z,1020.49
2017-04-03T07:15:17.776Z,1020.52
2017-04-03T07:16:30.006Z,1020.58
2017-04-03T07:17:42.231Z,1020.58
2017-04-03T07:18:54.772Z,1020.62
2017-04-03T07:20:07.293Z,1020.55
2017-04-03T07:21:19.515Z,1020.52
2017-04-03T07:22:32.103Z,1020.61
2017-04-03T07:23:44.362Z,1020.61
2017-04-03T07:24:56.923Z,1020.54
2017-04-03T07:26:09.449Z,1020.62
2017-04-03T07:27:21.976Z,1020.54
2017-04-03T07:28:34.213Z,1020.6
2017-04-03T07:29:46.514Z,1020.56
2017-04-03T07:30:59.057Z,1020.62
2017-04-03T07:32:11.560Z,1020.62
2017-04-03T07:33:24.094Z,1020.62
2017-04-03T07:34:36.373Z,1020.64
2017-04-03T07:35:48.615Z,1020.61
2017-04-03T07:37:01.165Z,1020.64
2017-04-03T07:38:13.685Z,1020.65
2017-04-03T07:39:26.228Z,1020.65
2017-04-03T07:40:38.449Z,1020.71
2017-04-03T07:41:50.687Z,1020.72
2017-04-03T07:43:02.637Z,1020.72
2017-04-03T07:44:15.191Z,1020.74
2017-04-03T07:45:27.432Z,1020.75
2017-04-03T07:46:39.960Z,1020.73
2017-04-03T07:47:52.504Z,1020.79
2017-04-03T07:49:04.724Z,1020.79
2017-04-03T07:50:17.245Z,1020.79
2017-04-03T07:51:29.190Z,1020.76
2017-04-03T07:52:41.709Z,1020.85
2017-04-03T07:53:54.259Z,1020.8
2017-04-03T07:55:06.804Z,1020.83
2017-04-03T07:56:19.355Z,1020.77
2017-04-03T07:57:31.901Z,1020.86
2017-04-03T07:58:44.443Z,1020.84
2017-04-03T07:59:56.983Z,1020.85
2017-04-03T08:01:09.510Z,1020.92
2017-04-03T08:02:21.775Z,1020.91
2017-04-03T08:03:34.324Z,1020.91
2017-04-03T08:04:46.867Z,1020.94
2017-04-03T08:05:59.409Z,1020.92
2017-04-03T08:07:11.355Z,1020.93
2017-04-03T08:08:23.882Z,1020.92
2017-04-03T08:09:36.118Z,1020.94
2017-04-03T08:10:48.347Z,1021
2017-04-03T08:12:00.867Z,1020.96
2017-04-03T08:13:13.397Z,1020.98
2017-04-03T08:14:25.934Z,1021.01
2017-04-03T08:15:38.498Z,1020.97
2017-04-03T08:16:50.722Z,1021.08
2017-04-03T08:18:03.264Z,1021.05
2017-04-03T08:19:15.770Z,1021.03
2017-04-03T08:20:28.318Z,1021.06
2017-04-03T08:21:40.863Z,1021.05
2017-04-03T08:22:53.408Z,1021.06
2017-04-03T08:24:05.654Z,1021.09
2017-04-03T08:25:18.201Z,1021.07
2017-04-03T08:26:30.422Z,1021.12
2017-04-03T08:27:42.670Z,1021.06
2017-04-03T08:28:55.210Z,1021.07
2017-04-03T08:30:07.748Z,1021.07
2017-04-03T08:31:20.282Z,1021.07
2017-04-03T08:32:32.499Z,1021.07
2017-04-03T08:33:45.074Z,1021.04
2017-04-03T08:34:57.639Z,1021.08
2017-04-03T08:36:09.864Z,1021.07
2017-04-03T08:37:22.123Z,1021.1
2017-04-03T08:38:34.668Z,1021.09
2017-04-03T08:39:46.598Z,1021.1
2017-04-03T08:40:59.137Z,1021.12
2017-04-03T08:42:11.644Z,1021.11
2017-04-03T08:43:24.186Z,1021.12
2017-04-03T08:44:36.135Z,1021.05
2017-04-03T08:45:48.678Z,1021.04
2017-04-03T08:47:00.926Z,1021.06
2017-04-03T08:48:13.472Z,1021.04
2017-04-03T08:49:25.996Z,1021.07
2017-04-03T08:50:38.538Z,1021.08
2017-04-03T08:51:50.462Z,1021.08
2017-04-03T08:53:02.108Z,1021.09
2017-04-03T08:54:14.669Z,1021.07
2017-04-03T08:55:27.202Z,1021.05
2017-04-03T08:56:39.743Z,1021.09
2017-04-03T08:57:52.580Z,1021.1
2017-04-03T08:59:04.482Z,1021.07
2017-04-03T09:00:16.732Z,1021.11
2017-04-03T09:01:28.666Z,1021.09
2017-04-03T09:02:40.270Z,1021.12
2017-04-03T09:03:52.795Z,1021.16
2017-04-03T09:05:05.033Z,1021.12
2017-04-03T09:06:17.583Z,1021.11
2017-04-03T09:07:29.533Z,1021.13
2017-04-03T09:08:41.775Z,1021.2
2017-04-03T09:09:54.296Z,1021.19
2017-04-03T09:11:06.819Z,1021.23
2017-04-03T09:12:19.045Z,1021.19
2017-04-03T09:13:31.587Z,1021.18
2017-04-03T09:14:44.126Z,1021.21
2017-04-03T09:15:56.680Z,1021.22
2017-04-03T09:17:09.197Z,1021.22
2017-04-03T09:18:21.397Z,1021.22
2017-04-03T09:19:33.934Z,1021.2
2017-04-03T09:20:46.459Z,1021.2
2017-04-03T09:21:58.998Z,1021.2
2017-04-03T09:23:11.247Z,1021.21
2017-04-03T09:24:23.201Z,1021.19
2017-04-03T09:25:35.735Z,1021.25
2017-04-03T09:26:47.657Z,1021.22
2017-04-03T09:28:00.190Z,1021.26
2017-04-03T09:29:12.431Z,1021.26
2017-04-03T09:30:24.973Z,1021.27
2017-04-03T09:31:36.882Z,1021.23
2017-04-03T09:32:49.421Z,1021.25
2017-04-03T09:34:01.339Z,1021.28
2017-04-03T09:35:13.868Z,1021.28
2017-04-03T09:36:26.399Z,1021.31
2017-04-03T09:37:38.920Z,1021.29
2017-04-03T09:38:51.151Z,1021.29
2017-04-03T09:40:03.698Z,1021.29
2017-04-03T09:41:16.221Z,1021.34
2017-04-03T09:42:28.765Z,1021.32
2017-04-03T09:43:41.307Z,1021.33
2017-04-03T09:44:53.845Z,1021.38
2017-04-03T09:46:06.377Z,1021.34
2017-04-03T09:47:18.925Z,1021.42
2017-04-03T09:48:31.143Z,1021.47
2017-04-03T09:49:43.111Z,1021.37
2017-04-03T09:50:55.636Z,1021.36
2017-04-03T09:52:07.878Z,1021.4
2017-04-03T09:53:20.129Z,1021.44
2017-04-03T09:54:32.649Z,1021.41
2017-04-03T09:55:45.187Z,1021.48
2017-04-03T09:56:57.741Z,1021.43
2017-04-03T09:58:10.325Z,1021.46
2017-04-03T09:59:22.833Z,1021.44
2017-04-03T10:00:35.383Z,1021.46
2017-04-03T10:01:47.916Z,1021.45
2017-04-03T10:03:00.445Z,1021.42
2017-04-03T10:04:12.387Z,1021.45
2017-04-03T10:05:24.904Z,1021.42
2017-04-03T10:06:37.461Z,1021.43
2017-04-03T10:07:49.993Z,1021.45
2017-04-03T10:09:02.513Z,1021.41
2017-04-03T10:10:15.023Z,1021.41
2017-04-03T10:11:27.271Z,1021.42
2017-04-03T10:12:39.801Z,1021.42
2017-04-03T10:13:52.326Z,1021.41
2017-04-03T10:15:04.576Z,1021.42
2017-04-03T10:16:16.821Z,1021.45
2017-04-03T10:17:29.343Z,1021.43
2017-04-03T10:18:41.891Z,1021.45
2017-04-03T10:19:54.457Z,1021.48
2017-04-03T10:21:06.983Z,1021.51
2017-04-03T10:22:18.918Z,1021.56
2017-04-03T10:23:31.468Z,1021.6
2017-04-03T10:24:43.671Z,1021.58
2017-04-03T10:25:56.231Z,1021.53
2017-04-03T10:27:07.839Z,1021.55
2017-04-03T10:28:20.062Z,1021.53
2017-04-03T10:29:32.647Z,1021.54
2017-04-03T10:30:44.875Z,1021.57
2017-04-03T10:31:57.419Z,1021.55
2017-04-03T10:33:09.932Z,1021.51
2017-04-03T10:34:22.478Z,1021.54
2017-04-03T10:35:35.005Z,1021.53
2017-04-03T10:36:47.219Z,1021.51
2017-04-03T10:37:59.777Z,1021.52
2017-04-03T10:39:12.297Z,1021.51
2017-04-03T10:40:24.519Z,1021.51
2017-04-03T10:41:37.060Z,1021.5
2017-04-03T10:42:49.599Z,1021.47
2017-04-03T10:44:01.831Z,1021.51
2017-04-03T10:45:14.393Z,1021.48
2017-04-03T10:46:26.919Z,1021.53
2017-04-03T10:47:39.166Z,1021.49
2017-04-03T10:48:51.416Z,1021.48
2017-04-03T10:50:03.660Z,1021.49
2017-04-03T10:51:15.586Z,1021.51
2017-04-03T10:52:28.126Z,1021.5
2017-04-03T10:53:40.345Z,1021.49
2017-04-03T10:54:52.895Z,1021.47
2017-04-03T10:56:05.421Z,1021.52
2017-04-03T10:57:17.637Z,1021.52
2017-04-03T10:58:29.886Z,1021.54
2017-04-03T10:59:42.154Z,1021.58
2017-04-03T11:00:54.369Z,1021.54
2017-04-03T11:02:06.932Z,1021.59
2017-04-03T11:03:19.161Z,1021.58
2017-04-03T11:04:31.086Z,1021.55
2017-04-03T11:05:43.329Z,1021.59
2017-04-03T11:06:55.868Z,1021.55
2017-04-03T11:08:08.399Z,1021.52
2017-04-03T11:09:20.947Z,1021.51
2017-04-03T11:10:33.182Z,1021.51
2017-04-03T11:11:44.830Z,1021.49
2017-04-03T11:12:56.787Z,1021.54
2017-04-03T11:14:09.330Z,1021.51
2017-04-03T11:15:21.268Z,1021.49
2017-04-03T11:16:33.796Z,1021.48
2017-04-03T11:17:46.020Z,1021.53
2017-04-03T11:18:58.811Z,1021.52
2017-04-03T11:20:11.359Z,1021.52
2017-04-03T11:21:23.593Z,1021.44
2017-04-03T11:22:35.826Z,1021.53
2017-04-03T11:23:48.346Z,1021.54
2017-04-03T11:25:00.885Z,1021.54
2017-04-03T11:26:13.112Z,1021.49
2017-04-03T11:27:25.305Z,1021.48
2017-04-03T11:28:37.828Z,1021.49
2017-04-03T11:29:50.077Z,1021.48
2017-04-03T11:31:02.637Z,1021.54
2017-04-03T11:32:15.173Z,1021.5
2017-04-03T11:33:27.427Z,1021.5
2017-04-03T11:34:39.981Z,1021.54
2017-04-03T11:35:51.931Z,1021.52
2017-04-03T11:37:04.451Z,1021.47
2017-04-03T11:38:17.019Z,1021.47
2017-04-03T11:39:29.564Z,1021.46
2017-04-03T11:40:42.127Z,1021.48
2017-04-03T11:41:54.359Z,1021.53
2017-04-03T11:43:05.981Z,1021.49
2017-04-03T11:44:18.532Z,1021.51
2017-04-03T11:45:31.112Z,1021.55
2017-04-03T11:46:43.622Z,1021.56
2017-04-03T11:47:56.177Z,1021.55
2017-04-03T11:49:08.392Z,1021.57
2017-04-03T11:50:20.930Z,1021.58
2017-04-03T11:51:33.454Z,1021.57
2017-04-03T11:52:45.987Z,1021.56
2017-04-03T11:53:58.236Z,1021.53
2017-04-03T11:55:10.766Z,1021.58
2017-04-03T11:56:23.314Z,1021.55
2017-04-03T11:57:35.846Z,1021.56
2017-04-03T11:58:48.382Z,1021.59
2017-04-03T12:00:00.920Z,1021.59
2017-04-03T12:01:13.433Z,1021.56
2017-04-03T12:02:25.369Z,1021.52
2017-04-03T12:03:37.900Z,1021.48
2017-04-03T12:04:50.457Z,1021.49
2017-04-03T12:06:02.984Z,1021.51
2017-04-03T12:07:15.499Z,1021.51
2017-04-03T12:08:28.022Z,1021.47
2017-04-03T12:09:40.542Z,1021.44
2017-04-03T12:10:53.061Z,1021.5
2017-04-03T12:12:05.328Z,1021.47
2017-04-03T12:13:17.554Z,1021.5
2017-04-03T12:14:29.802Z,1021.52
2017-04-03T12:15:42.346Z,1021.52
2017-04-03T12:16:54.891Z,1021.53
2017-04-03T12:18:07.408Z,1021.49
2017-04-03T12:19:19.634Z,1021.56
2017-04-03T12:20:32.176Z,1021.51
2017-04-03T12:21:44.424Z,1021.52
2017-04-03T12:22:56.934Z,1021.57
2017-04-03T12:24:09.466Z,1021.52
2017-04-03T12:25:21.714Z,1021.53
2017-04-03T12:26:33.955Z,1021.55
2017-04-03T12:27:46.182Z,1021.55
2017-04-03T12:28:58.703Z,1021.56
2017-04-03T12:30:11.240Z,1021.54
2017-04-03T12:31:23.543Z,1021.5
2017-04-03T12:32:36.111Z,1021.49
2017-04-03T12:33:48.334Z,1021.53
2017-04-03T12:35:00.273Z,1021.52
2017-04-03T12:36:12.802Z,1021.48
2017-04-03T12:37:25.335Z,1021.48
2017-04-03T12:38:37.559Z,1021.5
2017-04-03T12:39:49.784Z,1021.51
2017-04-03T12:41:01.710Z,1021.49
2017-04-03T12:42:14.222Z,1021.51
2017-04-03T12:43:26.781Z,1021.57
2017-04-03T12:44:38.999Z,1021.57
2017-04-03T12:45:51.296Z,1021.62
2017-04-03T12:47:03.835Z,1021.62
2017-04-03T12:48:16.065Z,1021.64
2017-04-03T12:49:28.606Z,1021.63
2017-04-03T12:50:41.152Z,1021.65
2017-04-03T12:51:53.373Z,1021.6
2017-04-03T12:53:05.615Z,1021.62
2017-04-03T12:54:17.861Z,1021.61
2017-04-03T12:55:30.410Z,1021.61
2017-04-03T12:56:42.930Z,1021.66
2017-04-03T12:57:55.473Z,1021.65
2017-04-03T12:59:07.424Z,1021.6
2017-04-03T13:00:19.361Z,1021.59
2017-04-03T13:01:31.903Z,1021.65
2017-04-03T13:02:44.412Z,1021.63
2017-04-03T13:03:56.962Z,1021.67
2017-04-03T13:05:09.195Z,1021.63
2017-04-03T13:06:21.424Z,1021.63
2017-04-03T13:07:33.669Z,1021.61
2017-04-03T13:08:46.194Z,1021.6
2017-04-03T13:09:58.112Z,1021.58
2017-04-03T13:11:10.053Z,1021.53
2017-04-03T13:12:22.275Z,1021.53
2017-04-03T13:13:34.517Z,1021.56
2017-04-03T13:14:46.717Z,1021.53
2017-04-03T13:15:59.248Z,1021.47
2017-04-03T13:17:11.805Z,1021.46
2017-04-03T13:18:24.588Z,1021.43
2017-04-03T13:19:36.504Z,1021.45
2017-04-03T13:20:48.424Z,1021.41
2017-04-03T13:22:00.685Z,1021.42
2017-04-03T13:23:13.217Z,1021.39
2017-04-03T13:24:25.734Z,1021.43
2017-04-03T13:25:37.954Z,1021.38
2017-04-03T13:26:49.582Z,1021.41
2017-04-03T13:28:02.130Z,1021.4
2017-04-03T13:29:14.049Z,1021.39
2017-04-03T13:30:26.567Z,1021.44
2017-04-03T13:31:38.789Z,1021.45
2017-04-03T13:32:51.037Z,1021.39
2017-04-03T13:34:03.576Z,1021.37
2017-04-03T13:35:15.526Z,1021.39
2017-04-03T13:36:27.476Z,1021.39
2017-04-03T13:37:39.718Z,1021.4
2017-04-03T13:38:52.234Z,1021.41
2017-04-03T13:40:04.451Z,1021.43
2017-04-03T13:41:16.979Z,1021.44
2017-04-03T13:42:29.230Z,1021.38
2017-04-03T13:43:40.873Z,1021.36
2017-04-03T13:44:53.417Z,1021.37
2017-04-03T13:46:05.665Z,1021.37
2017-04-03T13:47:18.214Z,1021.38
2017-04-03T13:48:30.127Z,1021.34
2017-04-03T13:49:42.369Z,1021.29
2017-04-03T13:50:53.994Z,1021.36
2017-04-03T13:52:06.244Z,1021.33
2017-04-03T13:53:18.512Z,1021.3
2017-04-03T13:54:31.009Z,1021.31
2017-04-03T13:55:43.233Z,1021.28
2017-04-03T13:56:55.466Z,1021.29
2017-04-03T13:58:08.002Z,1021.28
2017-04-03T13:59:20.220Z,1021.32
2017-04-03T14:00:32.443Z,1021.29
2017-04-03T14:01:44.667Z,1021.34
2017-04-03T14:02:57.228Z,1021.29
2017-04-03T14:04:09.470Z,1021.29
2017-04-03T14:05:22.015Z,1021.25
2017-04-03T14:06:34.541Z,1021.21
2017-04-03T14:07:47.091Z,1021.18
2017-04-03T14:08:59.612Z,1021.2
2017-04-03T14:10:12.136Z,1021.21
2017-04-03T14:11:24.671Z,1021.21
2017-04-03T14:12:36.901Z,1021.2
2017-04-03T14:13:49.150Z,1021.2
2017-04-03T14:15:01.680Z,1021.26
2017-04-03T14:16:14.237Z,1021.26
2017-04-03T14:17:26.783Z,1021.18
2017-04-03T14:18:39.033Z,1021.2
2017-04-03T14:19:51.288Z,1021.18
2017-04-03T14:21:03.809Z,1021.22
2017-04-03T14:22:15.744Z,1021.19
2017-04-03T14:23:28.304Z,1021.24
2017-04-03T14:24:40.872Z,1021.22
2017-04-03T14:25:53.377Z,1021.18
2017-04-03T14:27:05.875Z,1021.26
2017-04-03T14:28:17.821Z,1021.16
2017-04-03T14:29:30.041Z,1021.15
2017-04-03T14:30:42.565Z,1021.21
2017-04-03T14:31:54.807Z,1021.18
2017-04-03T14:33:07.355Z,1021.14
2017-04-03T14:34:19.874Z,1021.17
2017-04-03T14:35:32.417Z,1021.17
2017-04-03T14:36:44.638Z,1021.12
2017-04-03T14:37:56.910Z,1021.12
2017-04-03T14:39:09.511Z,1021.1